createdAt,value
2019-05-17T00:01:23.051Z,29.77
2019-05-17T00:03:53.899Z,31.47
2019-05-17T00:06:24.725Z,30.00
2019-05-17T00:08:56.452Z,30.93
2019-05-17T00:11:27.525Z,30.37
2019-05-17T00:13:58.356Z,31.10
2019-05-17T00:16:29.305Z,31.37
2019-05-17T00:19:00.131Z,28.90
2019-05-17T00:21:31.094Z,31.60
2019-05-17T00:24:01.498Z,27.00
2019-05-17T00:26:32.383Z,27.93
2019-05-17T00:29:03.545Z,30.10
2019-05-17T00:31:34.007Z,31.50
2019-05-17T00:34:07.132Z,30.43
2019-05-17T00:36:37.656Z,32.57
2019-05-17T00:39:08.597Z,32.03
2019-05-17T00:41:39.433Z,29.47
2019-05-17T00:44:10.374Z,32.50
2019-05-17T00:46:40.801Z,29.27
2019-05-17T00:49:11.673Z,30.97
2019-05-17T00:51:42.545Z,28.30
2019-05-17T00:54:13.171Z,30.30
2019-05-17T00:56:46.349Z,30.13
2019-05-17T00:59:17.243Z,29.97
2019-05-17T01:01:49.730Z,26.73
2019-05-17T01:04:20.854Z,29.70
2019-05-17T01:06:51.982Z,29.33
2019-05-17T01:09:22.971Z,28.87
2019-05-17T01:11:53.925Z,29.33
2019-05-17T01:14:26.564Z,28.70
2019-05-17T01:16:57.179Z,31.47
2019-05-17T01:19:28.014Z,28.03
2019-05-17T01:21:58.939Z,30.43
2019-05-17T01:24:29.795Z,33.23
2019-05-17T01:27:00.735Z,36.17
2019-05-17T01:29:31.575Z,34.83
2019-05-17T01:32:02.499Z,35.33
2019-05-17T01:34:33.477Z,33.27
2019-05-17T01:37:06.521Z,34.83
2019-05-17T01:39:37.764Z,59.83
2019-05-17T01:42:09.016Z,32.90
2019-05-17T01:44:40.311Z,42.83
2019-05-17T01:47:10.909Z,33.00
2019-05-17T01:49:41.852Z,37.50
2019-05-17T01:52:16.624Z,33.87
2019-05-17T01:54:47.073Z,47.00
2019-05-17T01:57:17.998Z,38.70
2019-05-17T01:59:48.852Z,46.63
2019-05-17T02:02:21.555Z,37.80
2019-05-17T02:04:53.028Z,49.53
2019-05-17T02:07:23.800Z,52.00
2019-05-17T02:09:56.719Z,35.17
2019-05-17T02:12:27.110Z,102.03
2019-05-17T02:14:58.391Z,58.10
2019-05-17T02:17:29.293Z,46.73
2019-05-17T02:20:00.408Z,56.73
2019-05-17T02:22:31.385Z,38.97
2019-05-17T02:25:03.894Z,34.40
2019-05-17T02:27:40.912Z,73.73
2019-05-17T02:30:09.025Z,34.77
2019-05-17T02:32:43.141Z,34.60
2019-05-17T02:35:14.872Z,44.97
2019-05-17T02:37:45.903Z,49.37
2019-05-17T02:40:17.345Z,39.30
2019-05-17T02:42:48.503Z,36.97
2019-05-17T02:45:19.830Z,35.30
2019-05-17T02:47:53.836Z,30.90
2019-05-17T02:50:26.342Z,40.63
2019-05-17T02:52:57.519Z,37.17
2019-05-17T02:55:28.698Z,144.50
2019-05-17T02:58:02.545Z,39.33
2019-05-17T03:00:33.976Z,27.80
2019-05-17T03:03:06.936Z,51.40
2019-05-17T03:05:43.084Z,34.07
2019-05-17T03:08:13.855Z,28.77
2019-05-17T03:10:44.856Z,34.90
2019-05-17T03:13:18.023Z,33.50
2019-05-17T03:15:52.535Z,36.27
2019-05-17T03:18:23.023Z,31.87
2019-05-17T03:20:57.103Z,42.10
2019-05-17T03:23:28.610Z,30.20
2019-05-17T03:26:05.646Z,33.20
2019-05-17T03:28:37.677Z,35.87
2019-05-17T03:31:17.078Z,34.80
2019-05-17T03:33:46.510Z,30.87
2019-05-17T03:36:25.467Z,30.30
2019-05-17T03:38:55.600Z,41.50
2019-05-17T03:41:29.443Z,31.37
2019-05-17T03:44:03.360Z,36.53
2019-05-17T03:46:34.582Z,44.13
2019-05-17T03:49:05.590Z,30.10
2019-05-17T03:51:36.544Z,26.93
2019-05-17T03:54:07.478Z,27.17
2019-05-17T03:56:38.896Z,27.70
2019-05-17T03:59:12.634Z,28.23
2019-05-17T04:01:43.536Z,27.67
2019-05-17T04:04:15.144Z,31.33
2019-05-17T04:06:46.278Z,25.73
2019-05-17T04:09:17.505Z,30.13
2019-05-17T04:11:48.698Z,30.27
2019-05-17T04:14:22.317Z,30.60
2019-05-17T04:16:53.653Z,26.97
2019-05-17T04:19:25.204Z,29.00
2019-05-17T04:21:56.259Z,26.03
2019-05-17T04:24:28.664Z,24.77
2019-05-17T04:27:03.533Z,24.17
2019-05-17T04:29:34.202Z,25.40
2019-05-17T04:32:05.316Z,27.60
2019-05-17T04:34:38.309Z,36.83
2019-05-17T04:37:09.334Z,34.40
2019-05-17T04:39:42.954Z,29.63
2019-05-17T04:42:14.558Z,29.47
2019-05-17T04:44:45.425Z,28.70
2019-05-17T04:47:16.443Z,28.30
2019-05-17T04:49:48.033Z,27.47
2019-05-17T04:52:22.531Z,28.87
2019-05-17T04:54:53.729Z,30.13
2019-05-17T04:57:25.151Z,25.30
2019-05-17T04:59:56.565Z,26.00
2019-05-17T05:02:27.596Z,28.13
2019-05-17T05:04:58.809Z,32.73
2019-05-17T05:07:29.719Z,31.87
2019-05-17T05:10:02.919Z,29.97
2019-05-17T05:12:33.763Z,35.83
2019-05-17T05:15:05.323Z,30.73
2019-05-17T05:17:36.379Z,34.87
2019-05-17T05:20:12.784Z,33.67
2019-05-17T05:22:43.529Z,36.00
2019-05-17T05:25:16.588Z,31.67
2019-05-17T05:27:48.226Z,30.53
2019-05-17T05:30:22.538Z,30.93
2019-05-17T05:32:54.418Z,29.93
2019-05-17T05:35:25.485Z,34.07
2019-05-17T05:37:56.833Z,34.20
2019-05-17T05:40:27.844Z,31.57
2019-05-17T05:42:58.767Z,30.37
2019-05-17T05:45:31.938Z,29.93
2019-05-17T05:48:02.451Z,32.03
2019-05-17T05:50:33.271Z,31.60
2019-05-17T05:53:04.101Z,31.03
2019-05-17T05:55:34.835Z,30.67
2019-05-17T05:58:05.779Z,29.07
2019-05-17T06:00:36.961Z,27.03
2019-05-17T06:03:07.808Z,28.20
2019-05-17T06:05:38.857Z,26.10
2019-05-17T06:08:12.811Z,26.17
2019-05-17T06:10:43.738Z,25.57
2019-05-17T06:13:14.518Z,24.87
2019-05-17T06:15:45.728Z,26.90
2019-05-17T06:18:17.352Z,27.47
2019-05-17T06:20:48.674Z,26.43
2019-05-17T06:23:19.603Z,22.73
2019-05-17T06:25:52.235Z,23.37
2019-05-17T06:28:22.760Z,24.17
2019-05-17T06:30:53.313Z,26.03
2019-05-17T06:33:30.064Z,24.70
2019-05-17T06:35:56.545Z,23.27
2019-05-17T06:38:27.451Z,24.13
2019-05-17T06:40:58.019Z,24.53
2019-05-17T06:43:28.440Z,23.30
2019-05-17T06:46:01.561Z,25.97
2019-05-17T06:48:33.213Z,25.47
2019-05-17T06:51:03.987Z,23.63
2019-05-17T06:53:34.855Z,22.00
2019-05-17T06:56:05.753Z,24.63
2019-05-17T06:58:36.495Z,26.53
2019-05-17T07:01:09.430Z,28.63
2019-05-17T07:03:39.965Z,25.83
2019-05-17T07:06:12.806Z,27.77
2019-05-17T07:08:43.662Z,26.53
2019-05-17T07:11:14.501Z,26.10
2019-05-17T07:13:45.359Z,31.57
2019-05-17T07:16:19.703Z,27.13
2019-05-17T07:18:50.616Z,26.53
2019-05-17T07:21:21.457Z,27.63
2019-05-17T07:23:52.269Z,30.27
2019-05-17T07:26:23.187Z,27.73
2019-05-17T07:28:55.217Z,27.07
2019-05-17T07:31:26.101Z,26.63
2019-05-17T07:33:56.865Z,26.77
2019-05-17T07:36:27.779Z,28.07
2019-05-17T07:39:00.760Z,27.00
2019-05-17T07:41:31.487Z,26.10
2019-05-17T07:44:02.440Z,28.20
2019-05-17T07:46:33.325Z,25.13
2019-05-17T07:49:10.810Z,26.00
2019-05-17T07:51:42.129Z,27.37
2019-05-17T07:54:12.735Z,26.80
2019-05-17T07:56:43.839Z,24.70
2019-05-17T07:59:14.726Z,25.67
2019-05-17T08:01:45.380Z,25.50
2019-05-17T08:04:16.238Z,26.97
2019-05-17T08:06:47.139Z,24.77
2019-05-17T08:09:20.320Z,25.80
2019-05-17T08:11:50.640Z,26.67
2019-05-17T08:14:30.117Z,24.97
2019-05-17T08:16:53.950Z,25.87
2019-05-17T08:19:24.790Z,24.23
2019-05-17T08:21:55.629Z,24.90
2019-05-17T08:24:27.002Z,22.23
2019-05-17T08:26:59.610Z,22.37
2019-05-17T08:29:30.385Z,22.50
2019-05-17T08:32:01.243Z,25.13
2019-05-17T08:34:32.119Z,26.73
2019-05-17T08:37:03.058Z,23.23
2019-05-17T08:39:33.828Z,23.33
2019-05-17T08:42:04.287Z,21.03
2019-05-17T08:44:35.096Z,22.27
2019-05-17T08:47:05.930Z,21.10
2019-05-17T08:49:36.802Z,21.87
2019-05-17T08:52:09.770Z,20.23
2019-05-17T08:54:42.818Z,20.50
2019-05-17T08:57:12.768Z,18.80
2019-05-17T08:59:43.850Z,19.50
2019-05-17T09:02:19.724Z,17.43
2019-05-17T09:04:46.902Z,18.23
2019-05-17T09:07:20.189Z,19.20
2019-05-17T09:09:50.329Z,17.60
2019-05-17T09:12:21.404Z,18.17
2019-05-17T09:14:52.310Z,18.73
2019-05-17T09:17:23.171Z,17.67
2019-05-17T09:19:54.499Z,17.97
2019-05-17T09:22:25.458Z,18.23
2019-05-17T09:24:56.291Z,16.33
2019-05-17T09:27:27.212Z,18.37
2019-05-17T09:30:00.104Z,17.00
2019-05-17T09:32:30.932Z,17.37
2019-05-17T09:35:01.924Z,16.87
2019-05-17T09:37:32.885Z,15.83
2019-05-17T09:40:03.870Z,16.23
2019-05-17T09:42:35.096Z,16.17
2019-05-17T09:45:09.711Z,16.33
2019-05-17T09:47:40.469Z,15.43
2019-05-17T09:50:11.808Z,14.30
2019-05-17T09:52:42.811Z,16.10
2019-05-17T09:55:13.726Z,14.37
2019-05-17T09:57:44.627Z,13.60
2019-05-17T10:00:17.198Z,13.05
2019-05-17T10:02:50.539Z,13.18
2019-05-17T10:05:20.639Z,14.87
2019-05-17T10:07:51.546Z,14.95
2019-05-17T10:10:22.468Z,14.93
2019-05-17T10:12:53.224Z,14.33
2019-05-17T10:15:23.658Z,13.67
2019-05-17T10:17:54.485Z,14.00
2019-05-17T10:20:25.299Z,15.23
2019-05-17T10:22:55.772Z,14.45
2019-05-17T10:25:26.756Z,14.90
2019-05-17T10:27:57.624Z,15.50
2019-05-17T10:30:29.938Z,14.53
2019-05-17T10:33:00.937Z,14.73
2019-05-17T10:35:31.797Z,16.67
2019-05-17T10:38:02.734Z,18.77
2019-05-17T10:40:35.292Z,15.95
2019-05-17T10:43:06.166Z,14.38
2019-05-17T10:45:40.036Z,14.70
2019-05-17T10:48:10.901Z,14.23
2019-05-17T10:50:41.830Z,13.35
2019-05-17T10:53:12.759Z,13.17
2019-05-17T10:55:43.706Z,15.25
2019-05-17T10:58:14.626Z,14.85
2019-05-17T11:00:45.675Z,14.93
2019-05-17T11:03:16.424Z,14.75
2019-05-17T11:05:47.341Z,12.80
2019-05-17T11:08:19.719Z,11.88
2019-05-17T11:10:50.423Z,12.45
2019-05-17T11:13:21.344Z,11.57
2019-05-17T11:15:52.117Z,12.70
2019-05-17T11:18:22.998Z,14.13
2019-05-17T11:20:54.648Z,12.68
2019-05-17T11:23:35.032Z,12.65
2019-05-17T11:26:00.558Z,13.80
2019-05-17T11:28:31.340Z,11.68
2019-05-17T11:31:01.962Z,11.18
2019-05-17T11:33:33.602Z,12.00
2019-05-17T11:36:04.400Z,12.15
2019-05-17T11:38:41.948Z,12.70
2019-05-17T11:41:20.442Z,12.28
2019-05-17T11:43:40.362Z,11.22
2019-05-17T11:46:11.306Z,13.22
2019-05-17T11:48:42.193Z,13.00
2019-05-17T11:51:13.138Z,12.28
2019-05-17T11:53:44.047Z,12.53
2019-05-17T11:56:14.881Z,11.53
2019-05-17T11:58:45.710Z,12.23
2019-05-17T12:01:16.572Z,11.88
2019-05-17T12:03:47.455Z,11.57
2019-05-17T12:06:17.956Z,12.33
2019-05-17T12:08:49.999Z,10.45
2019-05-17T12:11:21.162Z,11.83
2019-05-17T12:13:52.055Z,11.53
2019-05-17T12:16:22.872Z,9.53
2019-05-17T12:18:53.674Z,10.32
2019-05-17T12:21:24.469Z,11.78
2019-05-17T12:23:55.427Z,10.15
2019-05-17T12:26:25.920Z,11.05
2019-05-17T12:28:56.818Z,11.05
2019-05-17T12:31:27.667Z,11.25
2019-05-17T12:33:58.393Z,10.60
2019-05-17T12:36:29.302Z,11.40
2019-05-17T12:38:59.904Z,11.53
2019-05-17T12:41:30.809Z,10.72
2019-05-17T12:44:01.538Z,11.00
2019-05-17T12:46:32.411Z,11.50
2019-05-17T12:49:03.407Z,11.45
2019-05-17T12:51:33.891Z,10.85
2019-05-17T12:54:04.673Z,10.78
2019-05-17T12:56:35.529Z,10.90
2019-05-17T12:59:06.403Z,10.18
2019-05-17T13:01:37.379Z,11.53
2019-05-17T13:04:08.343Z,10.82
2019-05-17T13:06:38.888Z,9.70
2019-05-17T13:09:09.610Z,9.73
2019-05-17T13:11:40.421Z,9.45
2019-05-17T13:14:11.258Z,11.45
2019-05-17T13:16:42.050Z,10.30
2019-05-17T13:19:12.864Z,10.72
2019-05-17T13:21:43.777Z,10.18
2019-05-17T13:24:14.507Z,10.53
2019-05-17T13:26:45.346Z,9.55
2019-05-17T13:29:16.143Z,10.93
2019-05-17T13:31:46.930Z,10.55
2019-05-17T13:34:17.751Z,10.80
2019-05-17T13:36:48.222Z,10.68
2019-05-17T13:39:19.040Z,10.75
2019-05-17T13:41:51.891Z,10.32
2019-05-17T13:44:22.451Z,10.68
2019-05-17T13:46:53.317Z,11.22
2019-05-17T13:49:24.175Z,11.12
2019-05-17T13:51:55.117Z,10.38
2019-05-17T13:54:26.079Z,10.20
2019-05-17T13:56:56.925Z,10.05
2019-05-17T13:59:27.757Z,9.95
2019-05-17T14:01:58.489Z,10.28
2019-05-17T14:04:29.252Z,10.15
2019-05-17T14:06:59.919Z,10.32
2019-05-17T14:09:30.709Z,9.33
2019-05-17T14:12:02.655Z,10.55
2019-05-17T14:14:33.393Z,10.03
2019-05-17T14:17:04.251Z,10.38
2019-05-17T14:19:36.838Z,10.30
2019-05-17T14:22:07.675Z,9.38
2019-05-17T14:24:38.484Z,9.28
2019-05-17T14:27:09.326Z,8.85
2019-05-17T14:29:43.114Z,10.08
2019-05-17T14:32:14.516Z,10.23
2019-05-17T14:34:47.073Z,9.93
2019-05-17T14:37:17.913Z,9.80
2019-05-17T14:39:48.766Z,9.73
2019-05-17T14:42:19.652Z,10.18
2019-05-17T14:44:50.534Z,9.33
2019-05-17T14:47:21.461Z,9.20
2019-05-17T14:49:53.927Z,9.05
2019-05-17T14:52:26.251Z,9.50
2019-05-17T14:54:57.659Z,8.58
2019-05-17T14:57:28.586Z,9.78
2019-05-17T14:59:59.342Z,9.10
2019-05-17T15:02:33.327Z,9.53
2019-05-17T15:05:05.151Z,9.10
2019-05-17T15:07:37.942Z,9.30
2019-05-17T15:10:09.177Z,9.20
2019-05-17T15:12:40.072Z,9.60
2019-05-17T15:15:11.174Z,9.15
2019-05-17T15:17:42.028Z,10.00
2019-05-17T15:20:12.897Z,10.05
2019-05-17T15:22:43.840Z,9.78
2019-05-17T15:25:14.877Z,8.85
2019-05-17T15:27:51.233Z,10.05
2019-05-17T15:30:22.180Z,8.85
2019-05-17T15:32:56.081Z,8.70
2019-05-17T15:35:26.913Z,10.23
2019-05-17T15:37:57.514Z,9.35
2019-05-17T15:40:28.430Z,9.18
2019-05-17T15:42:59.306Z,9.35
2019-05-17T15:45:30.084Z,9.75
2019-05-17T15:48:00.484Z,9.53
2019-05-17T15:50:30.951Z,9.55
2019-05-17T15:53:01.569Z,10.15
2019-05-17T15:55:32.479Z,10.03
2019-05-17T15:58:03.477Z,8.55
2019-05-17T16:00:34.251Z,9.28
2019-05-17T16:03:05.292Z,10.15
2019-05-17T16:05:36.116Z,8.70
2019-05-17T16:08:06.875Z,9.63
2019-05-17T16:10:37.628Z,8.80
2019-05-17T16:13:08.544Z,8.58
2019-05-17T16:15:41.079Z,8.98
2019-05-17T16:18:11.933Z,9.28
2019-05-17T16:20:42.762Z,8.43
2019-05-17T16:23:13.646Z,8.83
2019-05-17T16:25:44.629Z,8.45
2019-05-17T16:28:15.136Z,7.78
2019-05-17T16:30:46.061Z,7.92
2019-05-17T16:33:18.610Z,7.97
2019-05-17T16:35:50.130Z,7.65
2019-05-17T16:38:20.689Z,8.03
2019-05-17T16:40:51.240Z,7.53
2019-05-17T16:43:22.114Z,7.92
2019-05-17T16:45:54.175Z,7.45
2019-05-17T16:48:24.670Z,7.70
2019-05-17T16:50:58.286Z,7.30
2019-05-17T16:53:29.110Z,8.05
2019-05-17T16:56:00.022Z,6.90
2019-05-17T16:58:32.613Z,7.33
2019-05-17T17:01:03.939Z,7.62
2019-05-17T17:03:43.923Z,8.23
2019-05-17T17:06:10.293Z,7.22
2019-05-17T17:08:40.744Z,7.40
2019-05-17T17:11:11.732Z,6.58
2019-05-17T17:13:42.635Z,7.45
2019-05-17T17:16:13.542Z,7.15
2019-05-17T17:18:44.518Z,6.70
2019-05-17T17:21:15.014Z,7.28
2019-05-17T17:23:45.853Z,7.12
2019-05-17T17:26:16.858Z,7.37
2019-05-17T17:28:47.780Z,7.12
2019-05-17T17:31:18.931Z,7.28
2019-05-17T17:33:49.745Z,7.28
2019-05-17T17:36:20.541Z,7.80
2019-05-17T17:38:51.416Z,7.53
2019-05-17T17:41:22.038Z,7.78
2019-05-17T17:43:58.582Z,8.23
2019-05-17T17:46:25.363Z,7.78
2019-05-17T17:48:56.218Z,8.43
2019-05-17T17:51:27.081Z,8.08
2019-05-17T17:53:57.880Z,8.23
2019-05-17T17:56:28.724Z,8.13
2019-05-17T17:58:59.532Z,8.93
2019-05-17T18:01:30.289Z,8.00
2019-05-17T18:04:00.995Z,8.70
2019-05-17T18:06:31.889Z,8.80
2019-05-17T18:09:03.557Z,9.75
2019-05-17T18:11:34.310Z,9.55
2019-05-17T18:14:12.810Z,9.00
2019-05-17T18:16:37.724Z,8.48
2019-05-17T18:19:08.713Z,9.53
2019-05-17T18:21:39.618Z,8.85
2019-05-17T18:24:10.263Z,9.13
2019-05-17T18:26:41.113Z,8.63
2019-05-17T18:29:12.036Z,9.10
2019-05-17T18:31:42.622Z,9.60
2019-05-17T18:34:13.512Z,10.17
2019-05-17T18:36:44.342Z,9.65
2019-05-17T18:39:15.162Z,10.80
2019-05-17T18:41:45.900Z,10.60
2019-05-17T18:44:27.155Z,10.93
2019-05-17T18:46:49.258Z,9.68
2019-05-17T18:49:20.192Z,11.20
2019-05-17T18:51:50.721Z,10.25
2019-05-17T18:54:21.771Z,11.25
2019-05-17T18:56:52.664Z,10.60
2019-05-17T18:59:25.043Z,10.80
2019-05-17T19:01:55.906Z,10.43
2019-05-17T19:04:26.720Z,10.35
2019-05-17T19:06:57.565Z,11.40
2019-05-17T19:09:28.380Z,10.93
2019-05-17T19:11:59.233Z,11.20
2019-05-17T19:14:42.170Z,12.55
2019-05-17T19:17:02.274Z,12.28
2019-05-17T19:19:33.106Z,11.10
2019-05-17T19:22:03.931Z,11.55
2019-05-17T19:24:35.022Z,12.18
2019-05-17T19:27:05.911Z,12.10
2019-05-17T19:29:36.802Z,12.43
2019-05-17T19:32:07.702Z,12.90
2019-05-17T19:34:38.494Z,12.23
2019-05-17T19:37:09.458Z,12.30
2019-05-17T19:39:40.363Z,11.68
2019-05-17T19:42:11.198Z,11.70
2019-05-17T19:44:41.787Z,12.40
2019-05-17T19:47:12.673Z,11.97
2019-05-17T19:49:43.093Z,12.20
2019-05-17T19:52:13.859Z,13.18
2019-05-17T19:54:44.805Z,12.83
2019-05-17T19:57:20.926Z,13.30
2019-05-17T19:59:53.240Z,12.80
2019-05-17T20:02:25.596Z,13.47
2019-05-17T20:04:56.409Z,14.00
2019-05-17T20:07:28.027Z,14.37
2019-05-17T20:09:59.792Z,13.85
2019-05-17T20:12:30.610Z,15.28
2019-05-17T20:15:16.149Z,15.23
2019-05-17T20:17:33.767Z,14.37
2019-05-17T20:20:06.895Z,14.87
2019-05-17T20:22:38.124Z,14.30
2019-05-17T20:25:09.596Z,15.87
2019-05-17T20:27:40.226Z,15.10
2019-05-17T20:30:11.727Z,15.18
2019-05-17T20:32:42.265Z,15.03
2019-05-17T20:35:13.824Z,14.70
2019-05-17T20:37:46.437Z,15.70
2019-05-17T20:40:17.943Z,15.57
2019-05-17T20:42:48.930Z,15.05
2019-05-17T20:45:32.067Z,15.83
2019-05-17T20:47:51.678Z,15.83
2019-05-17T20:50:22.666Z,14.80
2019-05-17T20:52:53.552Z,15.87
2019-05-17T20:55:27.245Z,16.83
2019-05-17T20:57:57.220Z,15.60
2019-05-17T21:00:28.051Z,15.40
2019-05-17T21:02:58.768Z,15.73
2019-05-17T21:05:29.689Z,15.40
2019-05-17T21:08:00.361Z,14.83
2019-05-17T21:10:30.938Z,15.70
2019-05-17T21:13:01.836Z,15.23
2019-05-17T21:15:45.716Z,15.17
2019-05-17T21:18:05.277Z,14.98
2019-05-17T21:20:36.207Z,15.32
2019-05-17T21:23:07.129Z,16.00
2019-05-17T21:25:38.071Z,14.90
2019-05-17T21:28:09.029Z,14.97
2019-05-17T21:30:40.015Z,15.40
2019-05-17T21:33:12.465Z,15.03
2019-05-17T21:35:43.365Z,15.23
2019-05-17T21:38:14.531Z,16.23
2019-05-17T21:40:45.433Z,15.67
2019-05-17T21:43:16.348Z,14.97
2019-05-17T21:46:01.079Z,15.50
2019-05-17T21:48:20.294Z,16.33
2019-05-17T21:50:51.151Z,15.93
2019-05-17T21:53:22.192Z,16.63
2019-05-17T21:55:53.008Z,16.67
2019-05-17T21:58:23.885Z,15.70
2019-05-17T22:01:03.741Z,16.27
2019-05-17T22:03:34.495Z,16.35
2019-05-17T22:06:05.462Z,16.07
2019-05-17T22:08:36.387Z,16.97
2019-05-17T22:11:07.253Z,16.53
2019-05-17T22:13:37.705Z,16.03
2019-05-17T22:16:19.285Z,16.60
2019-05-17T22:18:41.131Z,16.93
2019-05-17T22:21:11.658Z,16.40
2019-05-17T22:23:42.163Z,17.60
2019-05-17T22:26:12.970Z,17.23
2019-05-17T22:28:43.412Z,17.53
2019-05-17T22:31:14.219Z,17.00
2019-05-17T22:33:44.716Z,17.77
2019-05-17T22:36:15.654Z,17.57
2019-05-17T22:38:46.704Z,18.70
2019-05-17T22:41:17.521Z,19.03
2019-05-17T22:43:48.420Z,18.43
2019-05-17T22:46:34.736Z,18.73
2019-05-17T22:48:51.573Z,17.97
2019-05-17T22:51:22.501Z,19.30
2019-05-17T22:53:53.230Z,21.20
2019-05-17T22:56:24.033Z,19.10
2019-05-17T22:58:54.783Z,18.93
2019-05-17T23:01:25.667Z,19.43
2019-05-17T23:03:56.388Z,22.63
2019-05-17T23:06:27.187Z,24.23
2019-05-17T23:08:57.706Z,19.83
2019-05-17T23:11:28.441Z,20.67
2019-05-17T23:13:59.171Z,20.83
2019-05-17T23:16:30.030Z,20.73
2019-05-17T23:19:10.772Z,20.90
2019-05-17T23:21:41.822Z,20.77
2019-05-17T23:24:12.671Z,20.77
2019-05-17T23:26:43.387Z,22.50
2019-05-17T23:29:14.238Z,22.70
2019-05-17T23:31:45.080Z,21.73
2019-05-17T23:34:16.005Z,21.77
2019-05-17T23:36:46.488Z,21.90
2019-05-17T23:39:17.180Z,21.57
2019-05-17T23:41:48.108Z,21.70
2019-05-17T23:44:18.852Z,22.73
2019-05-17T23:46:49.672Z,21.80
2019-05-17T23:49:20.408Z,22.27
2019-05-17T23:51:51.152Z,23.50
2019-05-17T23:54:22.013Z,23.30
2019-05-17T23:56:52.481Z,23.97
2019-05-17T23:59:23.246Z,22.90
